Terminal Aerodrome Forecast
Issued by NWS

Home | Current Version | Previous Version | Text Only | Print | Product List | Glossary On
Versions: 1 2 3 4 5 6 7 8 9 10 11 12 13 14 15 16
000
FTUS43 KIND 042300
TAFHUF
TAF
KHUF 042320Z 0500/0524 05003KT P6SM SKC
      TEMPO 0509/0512 4SM BR
     FM051600 13004KT P6SM FEW045=

USA.gov is the U.S. government's official web portal to all federal, state and local government web resources and services.